Terminal Aerodrome Forecast
Issued by NWS

Home | Current Version | Previous Version | Graphics & Text | Print | Product List | Glossary On
Versions: 1 2 3 4 5 6 7 8 9 10 11 12 13 14 15 16 17 18 19 20 21 22 23 24 25 26 27 28 29 30 31 32
053
FTUS43 KGRB 050154 AAA
TAFRHI
TAF AMD
KRHI 050154Z 0502/0524 22005KT 5SM BR BKN004 OVC008
      TEMPO 0502/0506 3SM -FZDZSN OVC008
     FM050600 24007KT 4SM BR OVC012
     FM051300 22005KT 4SM BR BKN250
     FM051500 20007KT P6SM BKN250
     FM051800 16009KT P6SM SCT018 OVC080
      TEMPO 0522/0524 BKN018=

USA.gov is the U.S. government's official web portal to all federal, state and local government web resources and services.